createdAt,value
2022-12-11T00:00:56.433Z,98339.63
2022-12-11T00:03:24.360Z,98329.09
2022-12-11T00:05:51.900Z,98318.28
2022-12-11T00:08:19.515Z,98318.53
2022-12-11T00:10:49.572Z,98310.84
2022-12-11T00:13:17.108Z,98303.69
2022-12-11T00:15:44.663Z,98288.72
2022-12-11T00:18:14.182Z,98291.25
2022-12-11T00:20:42.023Z,98295.63
2022-12-11T00:23:10.815Z,98296.88
2022-12-11T00:25:47.120Z,98296.28
2022-12-11T00:28:18.912Z,98287.66
2022-12-11T00:30:47.041Z,98281.03
2022-12-11T00:33:15.327Z,98282.56
2022-12-11T00:35:45.828Z,98279.00
2022-12-11T00:38:19.747Z,98277.56
2022-12-11T00:40:48.016Z,98250.75
2022-12-11T00:43:16.892Z,98254.81
2022-12-11T00:45:47.143Z,98262.31
2022-12-11T00:48:15.018Z,98241.34
2022-12-11T00:50:43.153Z,98251.62
2022-12-11T00:53:10.857Z,98236.31
2022-12-11T00:55:40.273Z,98233.75
2022-12-11T00:58:09.325Z,98234.56
2022-12-11T01:00:37.884Z,98227.81
2022-12-11T01:03:06.281Z,98228.59
2022-12-11T01:05:35.196Z,98231.06
2022-12-11T01:08:03.810Z,98221.69
2022-12-11T01:10:32.598Z,98227.94
2022-12-11T01:13:06.386Z,98232.09
2022-12-11T01:15:45.331Z,98219.59
2022-12-11T01:18:15.599Z,98217.41
2022-12-11T01:20:43.722Z,98218.75
2022-12-11T01:23:13.897Z,98226.59
2022-12-11T01:25:44.445Z,98234.28
2022-12-11T01:28:12.065Z,98233.75
2022-12-11T01:30:43.711Z,98229.12
2022-12-11T01:33:11.726Z,98244.81
2022-12-11T01:35:40.313Z,98235.38
2022-12-11T01:38:09.871Z,98241.56
2022-12-11T01:40:37.775Z,98237.94
2022-12-11T01:43:05.403Z,98228.88
2022-12-11T01:45:51.024Z,98228.41
2022-12-11T01:48:25.611Z,98217.59
2022-12-11T01:50:58.082Z,98219.88
2022-12-11T01:53:33.903Z,98217.87
2022-12-11T01:56:03.100Z,98203.91
2022-12-11T01:58:34.384Z,98206.25
2022-12-11T02:01:03.237Z,98192.63
2022-12-11T02:03:31.363Z,98181.56
2022-12-11T02:06:00.466Z,98176.25
2022-12-11T02:08:28.740Z,98190.06
2022-12-11T02:11:11.595Z,98188.75
2022-12-11T02:13:53.898Z,98188.03
2022-12-11T02:16:29.129Z,98196.84
2022-12-11T02:19:08.001Z,98193.19
2022-12-11T02:21:42.531Z,98179.59
2022-12-11T02:24:33.484Z,98176.16
2022-12-11T02:27:14.754Z,98173.19
2022-12-11T02:29:55.366Z,98168.97
2022-12-11T02:32:39.455Z,98151.25
2022-12-11T02:35:07.765Z,98138.94
2022-12-11T02:37:38.824Z,98146.34
2022-12-11T02:40:11.246Z,98152.44
2022-12-11T02:42:42.561Z,98148.50
2022-12-11T02:45:12.601Z,98140.72
2022-12-11T02:47:43.662Z,98126.56
2022-12-11T02:50:15.894Z,98108.50
2022-12-11T02:52:46.672Z,98120.69
2022-12-11T02:55:16.023Z,98118.53
2022-12-11T02:57:56.606Z,98117.06
2022-12-11T03:00:24.594Z,98126.87
2022-12-11T03:02:52.546Z,98127.69
2022-12-11T03:05:20.196Z,98120.50
2022-12-11T03:07:47.872Z,98102.59
2022-12-11T03:10:19.251Z,98109.41
2022-12-11T03:12:53.374Z,98115.38
2022-12-11T03:15:30.296Z,98110.66
2022-12-11T03:18:09.844Z,98115.03
2022-12-11T03:20:47.683Z,98118.37
2022-12-11T03:23:24.105Z,98115.69
2022-12-11T03:25:59.113Z,98116.41
2022-12-11T03:28:31.961Z,98119.03
2022-12-11T03:31:04.237Z,98108.06
2022-12-11T03:33:37.623Z,98100.75
2022-12-11T03:36:11.067Z,98084.72
2022-12-11T03:38:50.397Z,98059.88
2022-12-11T03:41:22.297Z,98070.03
2022-12-11T03:43:53.457Z,98060.31
2022-12-11T03:46:22.585Z,98059.97
2022-12-11T03:48:52.922Z,98060.28
2022-12-11T03:51:24.220Z,98063.34
2022-12-11T03:53:53.280Z,98072.44
2022-12-11T03:56:22.405Z,98085.06
2022-12-11T03:58:57.079Z,98083.62
2022-12-11T04:01:25.034Z,98088.59
2022-12-11T04:03:52.962Z,98105.69
2022-12-11T04:06:20.772Z,98102.84
2022-12-11T04:08:48.609Z,98099.72
2022-12-11T04:11:34.800Z,98104.69
2022-12-11T04:14:28.147Z,98098.25
2022-12-11T04:16:57.076Z,98097.00
2022-12-11T04:19:44.158Z,98094.72
2022-12-11T04:22:31.958Z,98104.09
2022-12-11T04:25:00.398Z,98111.72
2022-12-11T04:27:46.826Z,98130.44
2022-12-11T04:30:21.136Z,98139.84
2022-12-11T04:32:49.554Z,98144.53
2022-12-11T04:35:17.461Z,98156.75
2022-12-11T04:37:45.363Z,98148.63
2022-12-11T04:40:17.226Z,98151.25
2022-12-11T04:42:44.859Z,98149.06
2022-12-11T04:45:13.580Z,98153.41
2022-12-11T04:47:42.211Z,98166.84
2022-12-11T04:50:11.975Z,98178.72
2022-12-11T04:52:39.924Z,98179.19
2022-12-11T04:55:08.784Z,98173.56
2022-12-11T04:57:36.884Z,98168.81
2022-12-11T05:00:08.552Z,98173.22
2022-12-11T05:02:38.083Z,98194.16
2022-12-11T05:05:06.912Z,98193.88
2022-12-11T05:07:34.446Z,98194.16
2022-12-11T05:10:02.548Z,98193.25
2022-12-11T05:12:31.528Z,98198.25
2022-12-11T05:14:59.110Z,98203.72
2022-12-11T05:17:26.919Z,98211.53
2022-12-11T05:19:54.720Z,98217.56
2022-12-11T05:22:22.298Z,98217.28
2022-12-11T05:24:50.136Z,98222.72
2022-12-11T05:27:17.739Z,98226.69
2022-12-11T05:29:45.355Z,98222.06
2022-12-11T05:32:13.199Z,98224.84
2022-12-11T05:34:40.708Z,98215.31
2022-12-11T05:37:09.168Z,98221.34
2022-12-11T05:39:37.909Z,98226.47
2022-12-11T05:42:05.706Z,98234.03
2022-12-11T05:44:33.863Z,98231.75
2022-12-11T05:47:01.784Z,98234.38
2022-12-11T05:49:31.212Z,98230.81
2022-12-11T05:51:58.894Z,98230.28
2022-12-11T05:54:26.701Z,98225.31
2022-12-11T05:56:54.271Z,98235.38
2022-12-11T05:59:21.774Z,98239.56
2022-12-11T06:01:49.832Z,98243.34
2022-12-11T06:04:17.764Z,98244.34
2022-12-11T06:06:45.319Z,98260.72
2022-12-11T06:09:16.758Z,98262.75
2022-12-11T06:11:44.649Z,98266.09
2022-12-11T06:14:12.339Z,98276.88
2022-12-11T06:16:40.100Z,98289.53
2022-12-11T06:19:14.391Z,98311.84
2022-12-11T06:21:42.189Z,98323.56
2022-12-11T06:24:10.865Z,98342.59
2022-12-11T06:26:38.348Z,98361.06
2022-12-11T06:29:09.208Z,98371.81
2022-12-11T06:31:40.550Z,98393.72
2022-12-11T06:34:08.844Z,98409.06
2022-12-11T06:36:36.869Z,98417.22
2022-12-11T06:39:04.726Z,98415.81
2022-12-11T06:41:32.403Z,98412.50
2022-12-11T06:43:59.905Z,98407.25
2022-12-11T06:46:27.709Z,98425.75
2022-12-11T06:48:55.765Z,98437.16
2022-12-11T06:51:23.920Z,98426.41
2022-12-11T06:53:56.329Z,98423.91
2022-12-11T06:56:24.861Z,98418.22
2022-12-11T06:58:53.155Z,98431.50
2022-12-11T07:01:26.035Z,98443.00
2022-12-11T07:03:55.724Z,98442.50
2022-12-11T07:06:24.882Z,98465.69
2022-12-11T07:08:53.042Z,98481.75
2022-12-11T07:11:21.503Z,98500.09
2022-12-11T07:13:49.146Z,98493.63
2022-12-11T07:16:18.411Z,98500.31
2022-12-11T07:18:51.522Z,98521.13
2022-12-11T07:21:20.505Z,98522.50
2022-12-11T07:23:49.474Z,98538.94
2022-12-11T07:26:19.897Z,98557.47
2022-12-11T07:28:48.048Z,98567.53
2022-12-11T07:31:19.176Z,98573.53
2022-12-11T07:33:47.481Z,98567.31
2022-12-11T07:36:16.252Z,98577.59
2022-12-11T07:38:43.933Z,98585.91
2022-12-11T07:41:13.652Z,98592.06
2022-12-11T07:43:42.521Z,98591.81
2022-12-11T07:46:18.613Z,98605.22
2022-12-11T07:48:48.171Z,98608.06
2022-12-11T07:51:25.050Z,98616.06
2022-12-11T07:53:54.483Z,98636.94
2022-12-11T07:56:22.982Z,98633.34
2022-12-11T07:58:50.885Z,98640.53
2022-12-11T08:01:21.529Z,98648.78
2022-12-11T08:03:50.709Z,98649.31
2022-12-11T08:06:18.909Z,98658.84
2022-12-11T08:08:47.498Z,98658.84
2022-12-11T08:11:15.611Z,98664.75
2022-12-11T08:13:43.994Z,98668.59
2022-12-11T08:16:14.176Z,98670.69
2022-12-11T08:18:43.294Z,98671.44
2022-12-11T08:21:24.256Z,98674.50
2022-12-11T08:23:53.866Z,98687.38
2022-12-11T08:26:30.523Z,98704.06
2022-12-11T08:28:59.174Z,98707.97
2022-12-11T08:31:27.128Z,98723.94
2022-12-11T08:33:56.522Z,98731.19
2022-12-11T08:36:25.392Z,98726.28
2022-12-11T08:38:54.979Z,98728.53
2022-12-11T08:41:28.474Z,98754.66
2022-12-11T08:43:58.462Z,98760.50
2022-12-11T08:46:31.414Z,98767.19
2022-12-11T08:49:00.041Z,98775.44
2022-12-11T08:51:29.374Z,98773.87
2022-12-11T08:54:01.572Z,98781.34
2022-12-11T08:56:29.885Z,98779.75
2022-12-11T08:59:01.085Z,98786.28
2022-12-11T09:01:28.904Z,98784.97
2022-12-11T09:03:56.956Z,98805.34
2022-12-11T09:06:27.273Z,98810.84
2022-12-11T09:08:56.147Z,98818.00
2022-12-11T09:11:26.763Z,98818.56
2022-12-11T09:13:54.989Z,98829.00
2022-12-11T09:16:24.914Z,98825.88
2022-12-11T09:18:54.913Z,98832.53
2022-12-11T09:21:25.747Z,98835.87
2022-12-11T09:23:55.115Z,98833.38
2022-12-11T09:26:24.459Z,98844.25
2022-12-11T09:28:53.332Z,98845.50
2022-12-11T09:31:24.195Z,98845.53
2022-12-11T09:33:56.424Z,98846.28
2022-12-11T09:36:24.866Z,98850.97
2022-12-11T09:38:52.830Z,98852.50
2022-12-11T09:41:23.189Z,98849.69
2022-12-11T09:44:02.355Z,98861.16
2022-12-11T09:46:34.356Z,98852.72
2022-12-11T09:49:04.082Z,98860.59
2022-12-11T09:51:46.751Z,98873.22
2022-12-11T09:54:15.141Z,98875.59
2022-12-11T09:56:50.706Z,98875.09
2022-12-11T09:59:42.804Z,98879.75
2022-12-11T10:02:45.203Z,98871.91
2022-12-11T10:05:26.574Z,98883.59
2022-12-11T10:08:15.649Z,98891.59
2022-12-11T10:10:52.016Z,98899.12
2022-12-11T10:13:57.308Z,98898.88
2022-12-11T10:16:57.721Z,98903.03
2022-12-11T10:19:30.028Z,98906.97
2022-12-11T10:22:01.167Z,98907.62
2022-12-11T10:25:10.040Z,98915.41
2022-12-11T10:27:31.574Z,98922.12
2022-12-11T10:30:24.723Z,98930.88
2022-12-11T10:33:48.317Z,98932.75
2022-12-11T10:36:20.861Z,98922.22
2022-12-11T10:38:49.129Z,98927.78
2022-12-11T10:41:38.041Z,98930.00
2022-12-11T10:44:19.094Z,98919.41
2022-12-11T10:46:48.535Z,98918.47
2022-12-11T10:49:25.842Z,98924.03
2022-12-11T10:51:55.436Z,98921.81
2022-12-11T10:54:38.175Z,98929.34
2022-12-11T10:57:08.286Z,98937.81
2022-12-11T10:59:43.803Z,98939.66
2022-12-11T11:02:25.678Z,98927.34
2022-12-11T11:04:55.815Z,98935.28
2022-12-11T11:07:28.941Z,98923.75
2022-12-11T11:10:12.104Z,98945.91
2022-12-11T11:12:47.811Z,98946.44
2022-12-11T11:15:18.261Z,98953.16
2022-12-11T11:17:55.521Z,98953.03
2022-12-11T11:20:30.078Z,98957.75
2022-12-11T11:23:01.691Z,98953.03
2022-12-11T11:25:33.056Z,98953.22
2022-12-11T11:28:08.407Z,98959.06
2022-12-11T11:30:41.498Z,98959.75
2022-12-11T11:33:21.057Z,98966.69
2022-12-11T11:35:58.419Z,98968.84
2022-12-11T11:38:58.779Z,98973.19
2022-12-11T11:41:33.428Z,98971.22
2022-12-11T11:44:04.560Z,98973.50
2022-12-11T11:46:36.610Z,98974.16
2022-12-11T11:49:13.205Z,98975.97
2022-12-11T11:51:50.248Z,98987.03
2022-12-11T11:54:35.940Z,98989.81
2022-12-11T11:57:17.688Z,98992.12
2022-12-11T11:59:53.713Z,98986.87
2022-12-11T12:02:21.899Z,98977.47
2022-12-11T12:04:51.376Z,98975.94
2022-12-11T12:08:05.972Z,98970.81
2022-12-11T12:10:44.196Z,98968.12
2022-12-11T12:13:49.034Z,98966.66
2022-12-11T12:16:55.383Z,98969.09
2022-12-11T12:19:33.891Z,98966.03
2022-12-11T12:22:40.568Z,98974.13
2022-12-11T12:28:37.824Z,98996.94
2022-12-11T12:31:08.081Z,99005.78
2022-12-11T12:33:51.140Z,99011.00
2022-12-11T12:36:37.716Z,99007.66
2022-12-11T12:43:20.236Z,99007.94
2022-12-11T12:46:26.016Z,99007.94
2022-12-11T12:48:56.624Z,99017.31
2022-12-11T12:51:26.104Z,99014.50
2022-12-11T12:53:59.310Z,99015.22
2022-12-11T12:56:29.212Z,99021.84
2022-12-11T12:58:56.883Z,99030.59
2022-12-11T13:01:27.699Z,99036.12
2022-12-11T13:03:59.752Z,99039.13
2022-12-11T13:06:35.109Z,99039.50
2022-12-11T13:09:17.267Z,99036.31
2022-12-11T13:11:46.085Z,99032.78
2022-12-11T13:14:13.801Z,99037.56
2022-12-11T13:16:46.169Z,99036.16
2022-12-11T13:19:39.020Z,99033.09
2022-12-11T13:22:12.712Z,99044.62
2022-12-11T13:25:19.375Z,99055.25
2022-12-11T13:27:47.296Z,99048.87
2022-12-11T13:30:15.237Z,99054.81
2022-12-11T13:32:52.145Z,99077.03
2022-12-11T13:35:20.832Z,99081.66
2022-12-11T13:37:52.367Z,99084.00
2022-12-11T13:40:24.654Z,99078.09
2022-12-11T13:43:05.950Z,99074.19
2022-12-11T13:45:45.177Z,99087.91
2022-12-11T13:48:24.995Z,99090.72
2022-12-11T13:50:54.070Z,99080.69
2022-12-11T13:53:22.622Z,99088.66
2022-12-11T13:56:02.157Z,99092.53
2022-12-11T13:58:34.585Z,99084.72
2022-12-11T14:01:11.334Z,99082.72
2022-12-11T14:03:41.588Z,99082.41
2022-12-11T14:06:18.083Z,99078.78
2022-12-11T14:08:51.475Z,99072.09
2022-12-11T14:11:30.006Z,99063.56
2022-12-11T14:14:01.082Z,99071.59
2022-12-11T14:16:29.116Z,99081.94
2022-12-11T14:19:04.211Z,99092.81
2022-12-11T14:21:32.174Z,99093.75
2022-12-11T14:24:06.706Z,99103.16
2022-12-11T14:26:38.743Z,99105.72
2022-12-11T14:29:07.031Z,99113.50
2022-12-11T14:31:40.586Z,99125.16
2022-12-11T14:34:25.713Z,99121.25
2022-12-11T14:36:54.489Z,99124.59
2022-12-11T14:39:34.509Z,99124.34
2022-12-11T14:42:12.971Z,99125.66
2022-12-11T14:45:02.257Z,99118.66
2022-12-11T14:47:39.355Z,99125.66
2022-12-11T14:50:22.151Z,99135.75
2022-12-11T14:53:04.310Z,99147.13
2022-12-11T14:55:35.202Z,99150.00
2022-12-11T14:58:26.520Z,99154.13
2022-12-11T15:01:21.135Z,99156.19
2022-12-11T15:03:49.505Z,99157.47
2022-12-11T15:06:27.968Z,99152.31
2022-12-11T15:08:56.560Z,99145.56
2022-12-11T15:11:30.347Z,99156.19
2022-12-11T15:14:01.023Z,99157.47
2022-12-11T15:16:33.303Z,99167.28
2022-12-11T15:19:02.177Z,99170.34
2022-12-11T15:21:35.770Z,99173.91
2022-12-11T15:24:05.567Z,99180.72
2022-12-11T15:26:36.692Z,99186.88
2022-12-11T15:29:25.035Z,99186.56
2022-12-11T15:32:08.822Z,99195.69
2022-12-11T15:34:58.791Z,99195.41
2022-12-11T15:37:36.601Z,99198.72
2022-12-11T15:40:05.473Z,99209.56
2022-12-11T15:42:39.922Z,99207.34
2022-12-11T15:45:15.453Z,99196.16
2022-12-11T15:47:44.454Z,99195.44
2022-12-11T15:50:18.120Z,99195.22
2022-12-11T15:52:46.565Z,99189.53
2022-12-11T15:55:15.128Z,99194.69
2022-12-11T15:57:49.501Z,99212.50
2022-12-11T16:00:19.388Z,99199.34
2022-12-11T16:02:48.126Z,99201.94
2022-12-11T16:05:16.482Z,99205.00
2022-12-11T16:07:44.185Z,99206.50
2022-12-11T16:10:19.979Z,99207.59
2022-12-11T16:12:47.747Z,99213.06
2022-12-11T16:15:22.809Z,99215.09
2022-12-11T16:18:03.551Z,99213.81
2022-12-11T16:20:35.221Z,99215.66
2022-12-11T16:23:03.963Z,99214.34
2022-12-11T16:25:32.864Z,99207.63
2022-12-11T16:28:01.736Z,99212.72
2022-12-11T16:30:29.815Z,99199.56
2022-12-11T16:32:57.970Z,99200.31
2022-12-11T16:35:25.683Z,99205.94
2022-12-11T16:37:53.533Z,99211.41
2022-12-11T16:40:22.586Z,99218.53
2022-12-11T16:42:51.883Z,99214.53
2022-12-11T16:45:22.332Z,99215.28
2022-12-11T16:47:51.130Z,99212.66
2022-12-11T16:50:19.641Z,99224.31
2022-12-11T16:52:47.395Z,99215.37
2022-12-11T16:55:15.731Z,99226.44
2022-12-11T16:57:43.491Z,99226.63
2022-12-11T17:00:14.615Z,99222.28
2022-12-11T17:02:42.570Z,99215.25
2022-12-11T17:05:10.696Z,99214.31
2022-12-11T17:07:38.699Z,99211.72
2022-12-11T17:10:07.664Z,99217.38
2022-12-11T17:12:35.494Z,99221.09
2022-12-11T17:15:04.926Z,99221.78
2022-12-11T17:17:33.944Z,99229.28
2022-12-11T17:20:05.198Z,99233.69
2022-12-11T17:22:33.419Z,99223.63
2022-12-11T17:25:00.957Z,99228.56
2022-12-11T17:27:28.564Z,99229.03
2022-12-11T17:29:57.821Z,99227.50
2022-12-11T17:32:25.899Z,99232.94
2022-12-11T17:34:53.820Z,99222.09
2022-12-11T17:37:21.738Z,99236.84
2022-12-11T17:39:53.343Z,99232.38
2022-12-11T17:42:21.592Z,99226.44
2022-12-11T17:44:50.478Z,99238.09
2022-12-11T17:47:19.050Z,99234.50
2022-12-11T17:49:47.324Z,99241.50
2022-12-11T17:52:15.064Z,99246.37
2022-12-11T17:54:42.750Z,99242.00
2022-12-11T17:57:10.911Z,99248.72
2022-12-11T17:59:39.182Z,99244.56
2022-12-11T18:02:06.899Z,99244.31
2022-12-11T18:04:34.807Z,99240.13
2022-12-11T18:07:02.883Z,99246.34
2022-12-11T18:09:30.586Z,99251.84
2022-12-11T18:11:59.018Z,99247.94
2022-12-11T18:14:26.723Z,99247.13
2022-12-11T18:16:54.454Z,99245.28
2022-12-11T18:19:22.851Z,99247.13
2022-12-11T18:21:50.895Z,99254.25
2022-12-11T18:24:18.772Z,99245.78
2022-12-11T18:26:47.748Z,99253.25
2022-12-11T18:29:16.064Z,99252.88
2022-12-11T18:31:44.434Z,99254.66
2022-12-11T18:34:12.767Z,99257.59
2022-12-11T18:36:40.867Z,99257.69
2022-12-11T18:39:08.761Z,99258.19
2022-12-11T18:41:36.947Z,99269.00
2022-12-11T18:44:09.512Z,99279.06
2022-12-11T18:46:39.685Z,99285.78
2022-12-11T18:49:07.733Z,99283.91
2022-12-11T18:51:36.220Z,99291.44
2022-12-11T18:54:04.603Z,99274.91
2022-12-11T18:56:32.318Z,99269.63
2022-12-11T18:59:00.168Z,99272.22
2022-12-11T19:01:29.356Z,99267.56
2022-12-11T19:04:03.517Z,99282.00
2022-12-11T19:06:35.697Z,99281.12
2022-12-11T19:09:06.958Z,99286.38
2022-12-11T19:11:40.041Z,99275.44
2022-12-11T19:14:09.313Z,99278.78
2022-12-11T19:16:45.421Z,99280.53
2022-12-11T19:19:18.871Z,99282.63
2022-12-11T19:21:48.162Z,99278.47
2022-12-11T19:24:20.839Z,99283.94
2022-12-11T19:26:49.742Z,99282.91
2022-12-11T19:29:22.084Z,99283.81
2022-12-11T19:31:50.493Z,99296.25
2022-12-11T19:34:19.949Z,99299.41
2022-12-11T19:36:48.847Z,99303.44
2022-12-11T19:39:17.814Z,99301.56
2022-12-11T19:41:49.182Z,99307.16
2022-12-11T19:44:17.396Z,99305.59
2022-12-11T19:46:45.403Z,99301.53
2022-12-11T19:49:14.322Z,99309.66
2022-12-11T19:51:43.534Z,99316.53
2022-12-11T19:54:15.540Z,99313.31
2022-12-11T19:56:45.007Z,99312.47
2022-12-11T19:59:16.641Z,99322.69
2022-12-11T20:01:48.117Z,99317.34
2022-12-11T20:04:18.179Z,99310.69
2022-12-11T20:06:46.969Z,99314.94
2022-12-11T20:09:16.163Z,99323.25
2022-12-11T20:11:45.184Z,99321.97
2022-12-11T20:14:24.838Z,99322.97
2022-12-11T20:17:14.608Z,99327.03
2022-12-11T20:19:43.333Z,99322.22
2022-12-11T20:22:12.537Z,99324.81
2022-12-11T20:24:40.687Z,99335.75
2022-12-11T20:27:09.687Z,99333.81
2022-12-11T20:29:38.974Z,99327.34
2022-12-11T20:32:07.386Z,99328.44
2022-12-11T20:34:35.637Z,99332.00
2022-12-11T20:37:04.871Z,99337.50
2022-12-11T20:39:32.650Z,99331.75
2022-12-11T20:42:04.686Z,99334.62
2022-12-11T20:44:32.799Z,99337.72
2022-12-11T20:47:00.615Z,99344.59
2022-12-11T20:49:28.439Z,99348.97
2022-12-11T20:51:56.883Z,99340.66
2022-12-11T20:54:24.615Z,99339.41
2022-12-11T20:56:52.640Z,99348.06
2022-12-11T20:59:20.845Z,99357.88
2022-12-11T21:01:49.550Z,99350.91
2022-12-11T21:04:17.500Z,99352.41
2022-12-11T21:06:45.640Z,99353.53
2022-12-11T21:09:19.286Z,99355.25
2022-12-11T21:11:47.621Z,99352.47
2022-12-11T21:14:16.546Z,99353.37
2022-12-11T21:16:45.474Z,99360.59
2022-12-11T21:19:17.105Z,99361.72
2022-12-11T21:21:45.707Z,99364.12
2022-12-11T21:24:26.446Z,99361.19
2022-12-11T21:26:55.993Z,99364.72
2022-12-11T21:29:26.386Z,99369.66
2022-12-11T21:31:54.237Z,99370.91
2022-12-11T21:34:25.226Z,99377.03
2022-12-11T21:36:56.877Z,99369.91
2022-12-11T21:39:26.958Z,99378.78
2022-12-11T21:41:54.843Z,99381.16
2022-12-11T21:47:10.372Z,99378.78
2022-12-11T21:49:38.423Z,99379.72
2022-12-11T21:52:08.525Z,99386.78
2022-12-11T21:54:36.851Z,99388.25
2022-12-11T21:57:04.899Z,99381.00
2022-12-11T21:59:33.095Z,99380.75
2022-12-11T22:02:01.005Z,99394.09
2022-12-11T22:04:28.966Z,99390.41
2022-12-11T22:06:56.548Z,99393.50
2022-12-11T22:09:24.100Z,99392.56
2022-12-11T22:11:57.952Z,99398.19
2022-12-11T22:14:26.764Z,99391.03
2022-12-11T22:16:54.676Z,99395.91
2022-12-11T22:19:22.488Z,99398.87
2022-12-11T22:21:50.496Z,99401.69
2022-12-11T22:24:19.043Z,99399.25
2022-12-11T22:26:46.580Z,99397.41
2022-12-11T22:29:14.141Z,99401.06
2022-12-11T22:31:42.170Z,99402.31
2022-12-11T22:34:09.722Z,99406.47
2022-12-11T22:36:37.692Z,99404.97
2022-12-11T22:39:05.553Z,99405.19
2022-12-11T22:41:33.530Z,99402.09
2022-12-11T22:44:01.016Z,99409.53
2022-12-11T22:46:30.704Z,99405.16
2022-12-11T22:48:59.172Z,99399.25
2022-12-11T22:51:26.739Z,99400.25
2022-12-11T22:53:54.623Z,99411.12
2022-12-11T22:56:22.188Z,99407.25
2022-12-11T22:58:49.840Z,99407.31
2022-12-11T23:01:23.404Z,99408.81
2022-12-11T23:03:51.549Z,99408.91
2022-12-11T23:06:22.034Z,99414.00
2022-12-11T23:08:50.001Z,99410.53
2022-12-11T23:11:19.130Z,99417.47
2022-12-11T23:13:47.348Z,99417.19
2022-12-11T23:16:15.001Z,99416.41
2022-12-11T23:18:43.028Z,99418.75
2022-12-11T23:21:12.237Z,99422.50
2022-12-11T23:23:41.139Z,99422.41
2022-12-11T23:26:12.265Z,99425.06
2022-12-11T23:28:40.405Z,99428.19
2022-12-11T23:31:08.568Z,99425.84
2022-12-11T23:33:36.659Z,99429.41
2022-12-11T23:36:05.335Z,99430.66
2022-12-11T23:38:33.224Z,99433.53
2022-12-11T23:41:02.469Z,99430.84
2022-12-11T23:43:32.059Z,99434.09
2022-12-11T23:45:59.681Z,99432.22
2022-12-11T23:48:27.238Z,99433.12
2022-12-11T23:51:02.364Z,99427.22
2022-12-11T23:53:30.089Z,99428.63
2022-12-11T23:56:04.181Z,99439.97
2022-12-11T23:58:32.399Z,99436.16
